Time;durP1;ratioP1;P1;durP2;ratioP2;P2;SDS_P1;SDS_P2;PMS_P1;PMS_P2;Temp;Humidity;BMP_temperature;BMP_pressure;BME280_temperature;BME280_humidity;BME280_pressure;Samples;Min_cycle;Max_cycle;Signal;HPM_P1;HPM_P2
2023/07/19 00:01:47;;;;;;;3.60;0.68;;;;;;;20.28;57.24;101522.63;5013172;28;20054;-84
2023/07/19 00:04:13;;;;;;;0.00;0.00;;;;;;;20.27;57.52;101520.88;5016114;28;20038;-83
2023/07/19 00:06:39;;;;;;;0.05;0.05;;;;;;;20.26;57.96;101522.72;5011816;28;20025;-83
2023/07/19 00:09:05;;;;;;;0.15;0.15;;;;;;;20.23;57.99;101520.16;5013568;28;20041;-84
2023/07/19 00:11:31;;;;;;;0.10;0.10;;;;;;;20.23;58.07;101514.78;5010925;28;20026;-83
2023/07/19 00:13:57;;;;;;;0.00;0.00;;;;;;;20.22;58.02;101515.72;5010893;28;20034;-83
2023/07/19 00:16:23;;;;;;;0.00;0.00;;;;;;;20.21;58.01;101516.66;5014155;28;20036;-83
2023/07/19 00:18:50;;;;;;;0.08;0.08;;;;;;;20.21;58.27;101513.97;5014473;28;20022;-83
2023/07/19 00:21:16;;;;;;;0.00;0.00;;;;;;;20.18;58.67;101522.22;5009870;28;20038;-83
2023/07/19 00:23:43;;;;;;;0.00;0.00;;;;;;;20.18;58.43;101514.16;5016454;28;20344;-83
2023/07/19 00:26:09;;;;;;;0.00;0.00;;;;;;;20.17;58.86;101509.72;5011464;28;20022;-83
2023/07/19 00:28:35;;;;;;;0.00;0.00;;;;;;;20.17;58.67;101505.19;5012906;28;20420;-85
2023/07/19 00:31:03;;;;;;;0.80;0.50;;;;;;;20.20;58.85;101498.81;5013366;28;20038;-84
2023/07/19 00:33:30;;;;;;;0.10;0.10;;;;;;;20.20;58.96;101499.66;5020226;28;20073;-84
2023/07/19 00:35:56;;;;;;;0.00;0.00;;;;;;;20.23;58.63;101505.84;5014491;28;20045;-84
2023/07/19 00:38:22;;;;;;;0.03;0.03;;;;;;;20.24;58.88;101499.50;5016448;28;20464;-84
2023/07/19 00:40:49;;;;;;;0.00;0.00;;;;;;;20.28;58.55;101488.50;5011111;28;20053;-84
2023/07/19 00:43:16;;;;;;;0.00;0.00;;;;;;;20.29;59.17;101487.56;5011002;28;20109;-83
2023/07/19 00:45:47;;;;;;;0.00;0.00;;;;;;;20.34;58.99;101487.34;5017037;28;20033;-83
2023/07/19 00:48:15;;;;;;;0.17;0.17;;;;;;;20.33;58.86;101483.75;5025042;28;20041;-84
2023/07/19 00:50:43;;;;;;;0.10;0.10;;;;;;;20.33;59.16;101486.44;5033556;28;20145;-84
2023/07/19 00:53:11;;;;;;;0.20;0.20;;;;;;;20.34;59.08;101484.66;5033156;28;20057;-85
2023/07/19 00:55:38;;;;;;;0.08;0.08;;;;;;;20.35;59.10;101481.88;5022400;28;20038;-84
2023/07/19 00:58:04;;;;;;;0.00;0.00;;;;;;;20.35;58.64;101484.56;5004443;28;20036;-84
2023/07/19 01:00:31;;;;;;;0.00;0.00;;;;;;;20.36;58.95;101488.13;5011640;28;20034;-83
2023/07/19 01:02:59;;;;;;;0.20;0.20;;;;;;;20.35;59.15;101489.94;5009161;28;20046;-83
2023/07/19 01:05:26;;;;;;;0.00;0.00;;;;;;;20.35;59.21;101487.25;5020755;28;20589;-84
2023/07/19 01:07:53;;;;;;;0.10;0.10;;;;;;;20.36;59.22;101482.72;5022371;28;20033;-84
2023/07/19 01:10:26;;;;;;;8.30;1.38;;;;;;;20.41;58.89;101485.19;5023906;28;20045;-83
2023/07/19 01:13:14;;;;;;;0.00;0.00;;;;;;;20.44;59.10;101495.81;5020432;28;20545;-84
2023/07/19 01:16:36;;;;;;;0.00;0.00;;;;;;;20.49;59.08;101483.00;5012731;28;20026;-83
2023/07/19 01:19:18;;;;;;;0.10;0.10;;;;;;;20.41;59.15;101477.13;4937634;29;20050;-83
2023/07/19 01:21:45;;;;;;;0.08;0.08;;;;;;;20.40;59.41;101472.69;4937933;29;20123;-83
2023/07/19 01:24:11;;;;;;;0.10;0.10;;;;;;;20.40;59.24;101480.75;4994072;28;20054;-84
2023/07/19 01:26:37;;;;;;;0.00;0.00;;;;;;;20.40;59.37;101473.56;5012062;28;20026;-84
2023/07/19 01:29:03;;;;;;;0.00;0.00;;;;;;;20.41;59.48;101474.44;5005812;28;20033;-84
2023/07/19 01:31:29;;;;;;;0.00;0.00;;;;;;;20.41;59.48;101463.66;5009817;28;20046;-84
2023/07/19 01:33:56;;;;;;;0.00;0.00;;;;;;;20.41;59.74;101459.16;5020562;28;20036;-84
2023/07/19 01:36:23;;;;;;;0.75;0.45;;;;;;;20.42;59.10;101462.72;5015213;28;20038;-84
2023/07/19 01:38:49;;;;;;;0.10;0.10;;;;;;;20.41;58.70;101469.03;5020720;28;20083;-84
2023/07/19 01:41:15;;;;;;;0.32;0.32;;;;;;;20.41;58.76;101477.13;5007479;28;20038;-84
2023/07/19 01:43:41;;;;;;;0.00;0.00;;;;;;;20.35;58.95;101470.25;5010741;28;20034;-84
2023/07/19 01:46:08;;;;;;;0.05;0.05;;;;;;;20.34;58.98;101469.38;5020913;28;20038;-84
2023/07/19 01:48:34;;;;;;;0.20;0.20;;;;;;;20.32;59.23;101465.88;5008992;28;20118;-83
2023/07/19 01:51:02;;;;;;;0.10;0.10;;;;;;;20.33;58.88;101472.13;5019884;28;20057;-84
2023/07/19 01:53:28;;;;;;;0.00;0.00;;;;;;;20.31;59.13;101474.03;5005212;28;20121;-83
2023/07/19 01:55:56;;;;;;;0.10;0.10;;;;;;;20.30;58.77;101477.66;5011713;28;20036;-84
2023/07/19 01:58:22;;;;;;;0.03;0.03;;;;;;;20.27;58.82;101477.84;5013307;28;20109;-83
2023/07/19 02:00:48;;;;;;;0.08;0.08;;;;;;;20.25;58.92;101469.84;5011787;28;20093;-83
2023/07/19 02:03:14;;;;;;;0.00;0.00;;;;;;;20.25;58.75;101464.47;5011075;28;20387;-84
2023/07/19 02:05:41;;;;;;;0.00;0.00;;;;;;;20.24;58.98;101457.34;5011855;28;20037;-83
2023/07/19 02:08:07;;;;;;;0.00;0.00;;;;;;;20.24;59.42;101462.72;5011517;28;20029;-83
2023/07/19 02:10:33;;;;;;;0.00;0.00;;;;;;;20.25;59.27;101461.78;5008084;28;20026;-83
2023/07/19 02:12:59;;;;;;;0.10;0.10;;;;;;;20.26;59.23;101470.72;5008831;28;20030;-83
2023/07/19 02:15:25;;;;;;;0.05;0.05;;;;;;;20.26;59.38;101468.00;5006691;28;20057;-83
2023/07/19 02:17:51;;;;;;;0.00;0.00;;;;;;;20.25;59.21;101455.50;5016762;28;20401;-82
2023/07/19 02:20:19;;;;;;;0.00;0.00;;;;;;;20.24;59.35;101451.94;5008307;28;20140;-83
2023/07/19 02:22:46;;;;;;;0.10;0.10;;;;;;;20.25;59.35;101458.19;5017617;28;20030;-83
2023/07/19 02:25:12;;;;;;;0.08;0.08;;;;;;;20.23;59.74;101458.28;5030386;28;20034;-83
2023/07/19 02:27:38;;;;;;;0.30;0.30;;;;;;;20.23;59.30;101458.28;5028848;28;20022;-83
2023/07/19 02:30:05;;;;;;;0.00;0.00;;;;;;;20.24;59.42;101457.34;5016818;28;20091;-83
2023/07/19 02:32:31;;;;;;;0.10;0.10;;;;;;;20.23;59.80;101450.22;5010577;28;20040;-83
2023/07/19 02:34:58;;;;;;;0.00;0.00;;;;;;;20.23;59.90;101454.72;5012485;28;20515;-83
2023/07/19 02:37:24;;;;;;;0.10;0.10;;;;;;;20.23;59.69;101454.72;5000769;28;20189;-83
2023/07/19 02:39:51;;;;;;;0.00;0.00;;;;;;;20.20;59.50;101456.63;5009306;28;20037;-82
2023/07/19 02:42:17;;;;;;;0.03;0.03;;;;;;;20.18;60.15;101463.03;5004729;28;20043;-83
2023/07/19 02:44:43;;;;;;;0.05;0.05;;;;;;;20.16;59.67;101459.53;5009573;28;20061;-83
2023/07/19 02:47:12;;;;;;;0.00;0.00;;;;;;;20.13;59.97;101465.09;5012412;28;20048;-83
2023/07/19 02:49:39;;;;;;;0.00;0.00;;;;;;;20.10;60.39;101459.84;5008222;28;20032;-82
2023/07/19 02:52:06;;;;;;;0.03;0.03;;;;;;;20.07;60.70;101465.38;4999533;28;20069;-82
2023/07/19 02:54:32;;;;;;;0.10;0.10;;;;;;;20.04;61.43;101461.91;5005582;28;20038;-82
2023/07/19 02:56:58;;;;;;;0.00;0.00;;;;;;;20.02;61.62;101455.72;5010640;28;20109;-83
2023/07/19 02:59:24;;;;;;;0.17;0.17;;;;;;;19.98;61.47;101451.44;4998819;28;20034;-82
2023/07/19 03:01:50;;;;;;;0.20;0.20;;;;;;;19.96;61.69;101447.97;5009089;28;20185;-83
2023/07/19 03:04:16;;;;;;;0.10;0.10;;;;;;;19.95;61.62;101457.00;5011283;28;20038;-83
2023/07/19 03:06:42;;;;;;;0.10;0.10;;;;;;;19.95;62.18;101448.91;5007008;28;20398;-83
2023/07/19 03:09:10;;;;;;;0.28;0.25;;;;;;;19.94;62.32;101454.34;5002552;28;20188;-83
2023/07/19 03:11:37;;;;;;;0.00;0.00;;;;;;;19.94;61.93;101449.88;5002095;28;20494;-83
2023/07/19 03:14:03;;;;;;;0.40;0.40;;;;;;;19.95;62.00;101454.31;5001404;28;20030;-83
2023/07/19 03:16:29;;;;;;;0.10;0.10;;;;;;;19.98;62.12;101450.59;5013874;28;20038;-82
2023/07/19 03:18:55;;;;;;;0.00;0.00;;;;;;;20.01;62.22;101445.94;5011045;28;20038;-83
2023/07/19 03:21:21;;;;;;;0.00;0.00;;;;;;;20.00;62.51;101438.81;5006770;28;20026;-83
2023/07/19 03:23:47;;;;;;;0.40;0.40;;;;;;;20.00;62.30;101443.28;5011196;28;20041;-83
2023/07/19 03:26:13;;;;;;;0.00;0.00;;;;;;;20.00;62.15;101449.56;5015398;28;20026;-83
2023/07/19 03:28:39;;;;;;;0.10;0.10;;;;;;;20.00;62.64;101451.34;5020670;28;20034;-84
2023/07/19 03:31:11;;;;;;;0.10;0.10;;;;;;;20.01;62.35;101445.03;5022108;28;20362;-84
2023/07/19 03:33:37;;;;;;;0.10;0.10;;;;;;;19.95;62.43;101446.22;5027987;28;20089;-83
2023/07/19 03:36:03;;;;;;;0.03;0.03;;;;;;;19.94;62.46;101439.09;5012972;28;20046;-83
2023/07/19 03:38:29;;;;;;;0.10;0.10;;;;;;;19.94;62.48;101444.50;5011491;28;20421;-84
2023/07/19 03:41:04;;;;;;;0.00;0.00;;;;;;;20.00;62.75;101444.19;5017810;28;20037;-83
2023/07/19 03:43:31;;;;;;;0.00;0.00;;;;;;;19.94;62.77;101436.41;5020464;28;20050;-83
2023/07/19 03:45:57;;;;;;;0.10;0.10;;;;;;;19.91;62.57;101431.19;5013750;28;20026;-83
2023/07/19 03:48:23;;;;;;;0.10;0.10;;;;;;;19.92;62.63;101438.31;5022681;28;20037;-83
2023/07/19 03:50:58;;;;;;;0.10;0.10;;;;;;;19.96;62.46;101437.22;5016409;28;20022;-83
2023/07/19 03:53:24;;;;;;;0.30;0.30;;;;;;;19.92;62.92;101443.69;5015915;28;20037;-83
2023/07/19 03:55:59;;;;;;;0.10;0.10;;;;;;;19.96;62.67;101439.03;5021690;28;20029;-83
2023/07/19 03:58:27;;;;;;;0.00;0.00;;;;;;;19.94;62.90;101443.59;5020388;28;20025;-83
2023/07/19 04:00:56;;;;;;;0.10;0.10;;;;;;;19.96;62.99;101436.34;5034197;28;20354;-82
2023/07/19 04:03:23;;;;;;;0.00;0.00;;;;;;;19.96;62.98;101442.59;5030396;28;20018;-83
2023/07/19 04:05:49;;;;;;;0.10;0.10;;;;;;;19.97;63.02;101438.94;5020298;28;20128;-83
2023/07/19 04:08:16;;;;;;;0.10;0.10;;;;;;;19.95;62.93;101443.53;5003141;28;20034;-83
2023/07/19 04:10:43;;;;;;;0.10;0.10;;;;;;;19.95;62.93;101440.84;5009876;28;20049;-83
2023/07/19 04:13:11;;;;;;;0.00;0.00;;;;;;;19.93;62.86;101442.75;5011634;28;20049;-83
2023/07/19 04:15:37;;;;;;;0.00;0.00;;;;;;;19.91;62.98;101444.63;5016493;28;20072;-83
2023/07/19 04:18:04;;;;;;;0.08;0.08;;;;;;;19.92;63.34;101451.75;5036315;28;20022;-83
2023/07/19 04:20:30;;;;;;;0.00;0.00;;;;;;;19.93;63.29;101452.63;5018484;28;20069;-84
2023/07/19 04:22:57;;;;;;;0.00;0.00;;;;;;;19.96;63.47;101450.66;5018676;28;20030;-83
2023/07/19 04:25:24;;;;;;;0.00;0.00;;;;;;;19.97;63.63;101448.84;5007803;28;20064;-83
2023/07/19 04:27:52;;;;;;;0.43;0.43;;;;;;;19.98;64.03;101443.38;5013795;28;20435;-84
2023/07/19 04:30:18;;;;;;;0.00;0.00;;;;;;;19.99;63.74;101437.06;5006856;28;20026;-83
2023/07/19 04:32:44;;;;;;;0.00;0.00;;;;;;;19.98;63.82;101440.69;5014122;28;20503;-82
2023/07/19 04:35:11;;;;;;;0.10;0.10;;;;;;;19.99;63.75;101439.75;5007996;28;20061;-83
2023/07/19 04:37:38;;;;;;;0.00;0.00;;;;;;;20.00;63.81;101441.50;5008537;28;20065;-81
2023/07/19 04:40:08;;;;;;;0.00;0.00;;;;;;;20.00;63.81;101444.19;4999887;28;20449;-82
2023/07/19 04:42:35;;;;;;;0.25;0.25;;;;;;;19.99;63.61;101447.81;5007170;28;20035;-81
2023/07/19 04:45:01;;;;;;;0.10;0.10;;;;;;;19.97;63.73;101443.47;5011170;28;20401;-82
2023/07/19 04:47:28;;;;;;;0.43;0.43;;;;;;;19.96;63.76;101445.28;5006376;28;20039;-82
2023/07/19 04:49:54;;;;;;;0.10;0.10;;;;;;;19.98;63.91;101448.75;5010867;28;20033;-82
2023/07/19 04:52:20;;;;;;;0.05;0.05;;;;;;;19.97;63.70;101444.31;5006882;28;20521;-84
2023/07/19 04:54:48;;;;;;;1.65;0.30;;;;;;;19.97;63.52;101448.84;5022443;28;20038;-82
2023/07/19 04:57:15;;;;;;;0.00;0.00;;;;;;;19.95;63.47;101446.22;5021765;28;20022;-84
2023/07/19 04:59:42;;;;;;;0.10;0.10;;;;;;;19.96;63.50;101442.59;5018210;28;20057;-84
2023/07/19 05:02:08;;;;;;;1.08;0.22;;;;;;;20.00;63.43;101444.19;5020782;28;20492;-84
2023/07/19 05:04:34;;;;;;;0.03;0.03;;;;;;;20.06;63.68;101442.97;5011058;28;20034;-84
2023/07/19 05:07:00;;;;;;;0.05;0.05;;;;;;;20.13;63.69;101447.09;5011924;28;20014;-84
2023/07/19 05:09:26;;;;;;;0.00;0.00;;;;;;;20.19;63.68;101444.09;5014908;28;20110;-83
2023/07/19 05:11:52;;;;;;;0.00;0.00;;;;;;;20.25;63.34;101448.31;5014768;28;20022;-84
2023/07/19 05:14:19;;;;;;;0.10;0.10;;;;;;;20.30;63.33;101446.25;5018526;28;20563;-84
2023/07/19 05:16:45;;;;;;;0.20;0.20;;;;;;;20.35;63.10;101449.59;5011379;28;20022;-84
2023/07/19 05:19:12;;;;;;;0.13;0.13;;;;;;;20.42;63.10;101449.25;5019031;28;20480;-81
2023/07/19 05:21:38;;;;;;;0.10;0.10;;;;;;;20.46;62.76;101450.84;5021934;28;20030;-84
2023/07/19 05:24:04;;;;;;;0.00;0.00;;;;;;;20.51;62.91;101449.66;5020958;28;20084;-84
2023/07/19 05:26:30;;;;;;;0.00;0.00;;;;;;;20.58;62.68;101444.81;5012888;28;20036;-83
2023/07/19 05:28:57;;;;;;;0.10;0.10;;;;;;;20.64;62.67;101443.63;5018297;28;20030;-83
2023/07/19 05:31:23;;;;;;;0.10;0.10;;;;;;;20.68;62.56;101447.88;5015566;28;20052;-83
2023/07/19 05:33:49;;;;;;;0.00;0.00;;;;;;;20.71;62.51;101449.53;5011181;28;20050;-83
2023/07/19 05:36:15;;;;;;;0.00;0.00;;;;;;;20.74;61.83;101438.66;5029134;28;20049;-83
2023/07/19 05:38:41;;;;;;;0.20;0.20;;;;;;;20.78;61.51;101446.47;5023082;28;20046;-82
2023/07/19 05:41:07;;;;;;;0.08;0.08;;;;;;;20.80;61.13;101441.03;5026581;28;20056;-83
2023/07/19 05:43:33;;;;;;;0.10;0.10;;;;;;;20.81;60.65;101448.13;5007087;28;20080;-83
2023/07/19 05:46:08;;;;;;;0.10;0.10;;;;;;;20.92;60.52;101451.16;5008014;28;20026;-83
2023/07/19 05:48:35;;;;;;;0.17;0.17;;;;;;;20.93;60.54;101443.91;5006927;28;20205;-82
2023/07/19 05:51:04;;;;;;;0.00;0.00;;;;;;;21.01;61.04;101447.94;5003424;28;20045;-83
2023/07/19 05:53:30;;;;;;;0.05;0.05;;;;;;;21.06;60.60;101449.50;5017186;28;20053;-83
2023/07/19 05:55:57;;;;;;;0.10;0.10;;;;;;;21.09;60.19;101442.13;5016561;28;20031;-83
2023/07/19 05:58:23;;;;;;;0.10;0.10;;;;;;;21.10;60.31;101440.31;5016341;28;20038;-83
2023/07/19 06:00:50;;;;;;;0.03;0.03;;;;;;;21.10;60.48;101443.00;5012602;28;20108;-82
2023/07/19 06:03:16;;;;;;;0.10;0.10;;;;;;;21.09;60.56;101439.44;5007089;28;20521;-83
2023/07/19 06:05:44;;;;;;;0.00;0.00;;;;;;;21.12;60.61;101441.09;5014141;28;20421;-83
2023/07/19 06:08:11;;;;;;;0.20;0.20;;;;;;;21.12;60.32;101444.66;5007076;28;20036;-82
2023/07/19 06:10:38;;;;;;;0.00;0.00;;;;;;;21.12;60.31;101438.38;5011603;28;20054;-84
2023/07/19 06:13:05;;;;;;;0.17;0.17;;;;;;;21.07;59.93;101445.84;5009748;28;20029;-83
2023/07/19 06:15:32;;;;;;;0.00;0.00;;;;;;;21.01;59.75;101442.56;5016825;28;20704;-83
2023/07/19 06:17:59;;;;;;;0.10;0.10;;;;;;;20.98;59.92;101439.16;4997424;28;20029;-85
2023/07/19 06:20:26;;;;;;;0.00;0.00;;;;;;;20.99;60.09;101439.06;5007921;28;20076;-83
2023/07/19 06:22:52;;;;;;;0.10;0.10;;;;;;;21.01;60.01;101445.25;5008085;28;20026;-84
2023/07/19 06:25:18;;;;;;;0.00;0.00;;;;;;;21.07;60.08;101445.84;5015792;28;20042;-82
2023/07/19 06:27:44;;;;;;;0.00;0.00;;;;;;;21.13;60.30;101442.81;5007886;28;20027;-83
2023/07/19 06:30:11;;;;;;;0.35;0.35;;;;;;;21.20;60.44;101440.66;5012397;28;20030;-83
2023/07/19 06:32:38;;;;;;;0.00;0.00;;;;;;;21.27;60.00;101451.03;5020322;28;20100;-84
2023/07/19 06:35:05;;;;;;;0.10;0.10;;;;;;;21.36;60.12;101437.97;5013492;28;20037;-85
2023/07/19 06:37:32;;;;;;;0.10;0.10;;;;;;;21.43;60.19;101442.06;5009009;28;20086;-82
2023/07/19 06:40:02;;;;;;;0.10;0.10;;;;;;;21.49;59.94;101436.34;5019185;28;20105;-84
2023/07/19 06:42:28;;;;;;;0.00;0.00;;;;;;;21.57;59.85;101441.31;5013036;28;20068;-85
2023/07/19 06:44:56;;;;;;;0.10;0.10;;;;;;;21.63;59.98;101443.66;5012661;28;20089;-88
2023/07/19 06:47:22;;;;;;;0.10;0.10;;;;;;;21.69;59.80;101439.75;5005886;28;20021;-85
2023/07/19 06:49:48;;;;;;;0.15;0.15;;;;;;;21.72;59.78;101436.88;5022896;28;20038;-85
2023/07/19 06:52:14;;;;;;;0.00;0.00;;;;;;;21.77;59.65;101430.28;5016917;28;20037;-85
2023/07/19 06:54:40;;;;;;;0.00;0.00;;;;;;;21.77;59.48;101437.47;5015569;28;20034;-87
2023/07/19 06:57:07;;;;;;;0.00;0.00;;;;;;;21.79;59.26;101435.56;5022929;28;20034;-86
2023/07/19 06:59:33;;;;;;;6.03;1.45;;;;;;;21.76;59.26;101439.31;5014335;28;20116;-85
2023/07/19 07:01:59;;;;;;;0.68;0.68;;;;;;;21.72;59.39;101443.16;5008005;28;20499;-86
2023/07/19 07:04:25;;;;;;;0.10;0.10;;;;;;;21.73;59.53;101438.63;5015253;28;20507;-85
2023/07/19 07:06:51;;;;;;;0.10;0.10;;;;;;;21.75;59.62;101439.41;5019897;28;20034;-86
2023/07/19 07:09:17;;;;;;;0.30;0.30;;;;;;;21.78;59.48;101434.72;5018629;28;20030;-84
2023/07/19 07:11:43;;;;;;;0.00;0.00;;;;;;;21.80;59.07;101442.72;5023734;28;20097;-85
2023/07/19 07:14:10;;;;;;;0.08;0.08;;;;;;;21.87;58.66;101446.78;5037982;28;20049;-86
2023/07/19 07:16:43;;;;;;;0.10;0.10;;;;;;;21.95;58.58;101446.34;5022513;28;20046;-85
2023/07/19 07:19:10;;;;;;;0.00;0.00;;;;;;;22.08;58.08;101444.66;5010002;28;20048;-84
2023/07/19 07:21:36;;;;;;;0.00;0.00;;;;;;;22.21;58.29;101450.19;5003163;28;20036;-86
2023/07/19 07:24:03;;;;;;;0.10;0.10;;;;;;;22.32;57.95;101446.84;5019017;28;20029;-85
2023/07/19 07:26:29;;;;;;;0.10;0.10;;;;;;;22.43;57.61;101448.91;5019116;28;20022;-86
2023/07/19 07:28:55;;;;;;;0.00;0.00;;;;;;;22.52;57.59;101447.50;5013079;28;20081;-85
2023/07/19 07:31:21;;;;;;;0.00;0.00;;;;;;;22.56;56.97;101446.38;5025256;28;20023;-89
2023/07/19 07:33:47;;;;;;;0.00;0.00;;;;;;;22.56;55.76;101451.75;5017811;28;20045;-86
2023/07/19 07:36:13;;;;;;;0.00;0.00;;;;;;;22.66;56.23;101452.06;5020209;28;20493;-86
2023/07/19 07:38:39;;;;;;;0.28;0.28;;;;;;;22.68;56.52;101444.72;5014941;28;20022;-85
2023/07/19 07:41:06;;;;;;;0.00;0.00;;;;;;;22.73;56.62;101448.00;5019630;28;20064;-87
2023/07/19 07:43:32;;;;;;;0.10;0.10;;;;;;;22.81;56.52;101440.31;5033843;28;20040;-82
2023/07/19 07:45:58;;;;;;;0.10;0.10;;;;;;;22.93;56.10;101442.25;5035931;28;20013;-85
2023/07/19 07:48:25;;;;;;;0.30;0.30;;;;;;;23.09;55.99;101434.03;5030434;28;20046;-86
2023/07/19 07:50:52;;;;;;;0.30;0.30;;;;;;;23.20;55.23;101438.81;5025592;28;20046;-87
2023/07/19 07:53:20;;;;;;;0.00;0.00;;;;;;;23.34;55.02;101439.72;5032640;28;20085;-82
2023/07/19 07:55:47;;;;;;;0.43;0.43;;;;;;;23.45;55.57;101434.47;5036863;28;19998;-81
2023/07/19 07:58:13;;;;;;;0.00;0.00;;;;;;;23.48;53.54;101434.31;5026054;28;20027;-82
2023/07/19 08:00:40;;;;;;;0.00;0.00;;;;;;;23.45;52.70;101439.03;5033908;28;20061;-81
2023/07/19 08:03:07;;;;;;;0.10;0.10;;;;;;;23.43;52.62;101428.31;5026043;28;20037;-81
2023/07/19 08:05:33;;;;;;;0.10;0.10;;;;;;;23.43;54.42;101431.03;5000504;28;20061;-82
2023/07/19 08:08:00;;;;;;;0.10;0.10;;;;;;;23.36;54.05;101432.38;5013024;28;20040;-82
2023/07/19 08:10:26;;;;;;;0.20;0.20;;;;;;;23.33;52.63;101428.06;5015771;28;20038;-83
2023/07/19 08:12:52;;;;;;;0.10;0.10;;;;;;;23.39;53.29;101427.66;5027138;28;20054;-82
2023/07/19 08:15:18;;;;;;;0.20;0.20;;;;;;;23.50;53.56;101429.66;5013868;28;20048;-82
2023/07/19 08:17:44;;;;;;;0.10;0.10;;;;;;;23.58;52.22;101423.75;5015872;28;20093;-82
2023/07/19 08:20:11;;;;;;;0.00;0.00;;;;;;;23.73;51.68;101425.41;5015917;28;20026;-82
2023/07/19 08:22:38;;;;;;;0.10;0.10;;;;;;;23.78;51.29;101419.72;5013677;28;20038;-83
2023/07/19 08:25:06;;;;;;;0.00;0.00;;;;;;;23.88;51.36;101417.25;5014840;28;20018;-82
2023/07/19 08:27:32;;;;;;;0.40;0.40;;;;;;;23.83;51.06;101416.72;5025923;28;20054;-81
2023/07/19 08:30:04;;;;;;;0.10;0.10;;;;;;;23.78;51.24;101419.72;5014950;28;20022;-82
2023/07/19 08:32:32;;;;;;;;;;;;;;;23.82;50.70;101417.69;5013951;28;20033;-83
2023/07/19 08:34:58;;;;;;;0.10;0.10;;;;;;;23.74;50.54;101413.63;5013385;28;19924;-82
2023/07/19 08:37:24;;;;;;;0.10;0.10;;;;;;;23.82;51.29;101417.69;5012283;28;20052;-81
2023/07/19 08:39:50;;;;;;;0.00;0.00;;;;;;;23.87;51.04;101420.94;5012412;28;20460;-80
2023/07/19 08:42:16;;;;;;;0.10;0.10;;;;;;;23.89;50.88;101413.59;5021532;28;20025;-80
2023/07/19 08:44:42;;;;;;;0.10;0.10;;;;;;;23.80;51.47;101420.50;5019186;28;20030;-81
2023/07/19 08:47:11;;;;;;;0.00;0.00;;;;;;;23.73;50.78;101419.16;5033793;28;20026;-81
2023/07/19 08:49:38;;;;;;;0.00;0.00;;;;;;;23.59;50.81;101422.78;5021538;28;20046;-78
2023/07/19 08:52:07;;;;;;;0.00;0.00;;;;;;;23.61;51.34;101428.94;5006155;28;20043;-81
2023/07/19 08:54:37;;;;;;;0.20;0.20;;;;;;;23.74;51.98;101416.34;5008911;28;20455;-80
2023/07/19 08:57:04;;;;;;;0.40;0.40;;;;;;;23.88;51.52;101428.94;5000455;28;20034;-80
2023/07/19 08:59:31;;;;;;;0.00;0.00;;;;;;;23.92;50.65;101420.66;5015995;28;20030;-80
2023/07/19 09:01:57;;;;;;;0.00;0.00;;;;;;;23.99;50.88;101427.38;5000001;28;20112;-79
2023/07/19 09:04:23;;;;;;;4.20;0.80;;;;;;;24.01;50.73;101425.44;4998920;28;20145;-79
2023/07/19 09:06:50;;;;;;;0.43;0.43;;;;;;;24.04;49.88;101419.84;4999570;28;20085;-80
2023/07/19 09:09:17;;;;;;;0.08;0.08;;;;;;;24.04;49.93;101423.41;4989407;28;20030;-81
2023/07/19 09:11:49;;;;;;;0.10;0.10;;;;;;;24.20;50.17;101414.22;5000250;28;20027;-80
2023/07/19 09:14:16;;;;;;;0.00;0.00;;;;;;;24.37;50.03;101418.47;5000429;28;20057;-81
2023/07/19 09:16:44;;;;;;;0.65;0.52;;;;;;;24.41;48.89;101417.28;5006015;28;20054;-81
2023/07/19 09:19:10;;;;;;;0.03;0.03;;;;;;;24.63;47.94;101426.63;5001525;28;20026;-82
2023/07/19 09:21:43;;;;;;;1.00;0.30;;;;;;;24.87;48.25;101414.09;5007099;28;20037;-81
2023/07/19 09:24:11;;;;;;;0.10;0.10;;;;;;;25.01;48.13;101420.34;5010307;28;20171;-80
2023/07/19 09:26:51;;;;;;;0.35;0.35;;;;;;;25.17;48.08;101417.38;5007681;28;20599;-80
2023/07/19 09:29:18;;;;;;;0.00;0.00;;;;;;;25.13;47.63;101415.88;5007016;28;20051;-80
2023/07/19 09:32:02;;;;;;;0.10;0.10;;;;;;;25.15;46.79;101425.63;5006512;28;20041;-82
2023/07/19 09:34:35;;;;;;;0.10;0.10;;;;;;;25.03;46.61;101427.41;5009268;28;20030;-82
2023/07/19 09:37:02;;;;;;;0.10;0.10;;;;;;;24.87;47.66;101424.03;5012654;28;20460;-83
2023/07/19 09:39:30;;;;;;;0.40;0.20;;;;;;;24.73;46.86;101425.03;5011119;28;20080;-86
2023/07/19 09:41:58;;;;;;;0.10;0.10;;;;;;;24.64;46.89;101425.66;5005160;28;20030;-86
2023/07/19 09:44:24;;;;;;;0.10;0.10;;;;;;;24.53;47.46;101423.69;5006051;28;20033;-83
2023/07/19 09:46:51;;;;;;;0.10;0.10;;;;;;;24.51;47.47;101431.94;5010780;28;21763;-83
2023/07/19 09:49:17;;;;;;;2.03;0.47;;;;;;;24.45;47.61;101432.38;5012437;28;20030;-84
2023/07/19 09:51:44;;;;;;;0.10;0.10;;;;;;;24.47;47.71;101430.41;5005833;28;20580;-84
2023/07/19 09:54:12;;;;;;;0.10;0.10;;;;;;;24.59;48.95;101431.41;5014067;28;20034;-83
2023/07/19 09:56:39;;;;;;;0.10;0.10;;;;;;;24.43;49.71;101431.59;5013689;28;20042;-82
2023/07/19 09:59:09;;;;;;;0.13;0.13;;;;;;;24.51;49.20;101431.06;5015331;28;20056;-82
2023/07/19 10:01:36;;;;;;;0.30;0.30;;;;;;;24.39;50.51;101427.38;5020182;28;20054;-82
2023/07/19 10:04:22;;;;;;;0.00;0.00;;;;;;;24.31;51.36;101430.63;5026355;28;20034;-81
2023/07/19 10:06:49;;;;;;;0.10;0.10;;;;;;;24.10;52.12;101435.66;5017786;28;20026;-82
2023/07/19 10:12:01;;;;;;;0.05;0.05;;;;;;;23.83;51.89;101432.94;5082809;28;20395;-81
2023/07/19 10:14:28;;;;;;;0.10;0.10;;;;;;;23.70;52.89;101446.41;5071052;28;20033;-81
2023/07/19 10:16:57;;;;;;;0.00;0.00;;;;;;;23.64;52.60;101438.69;5071652;28;20043;-81
2023/07/19 10:19:24;;;;;;;0.20;0.20;;;;;;;23.66;52.84;101439.47;5066508;28;20067;-82
2023/07/19 10:25:03;;;;;;;0.00;0.00;;;;;;;23.78;52.62;101449.47;5119102;27;20424;-82
2023/07/19 10:27:37;;;;;;;0.03;0.03;;;;;;;23.85;52.23;101442.69;5104690;28;20036;-82
2023/07/19 10:30:05;;;;;;;0.30;0.30;;;;;;;23.91;51.88;101435.97;5099918;28;20020;-82
2023/07/19 10:32:31;;;;;;;0.10;0.10;;;;;;;23.98;51.41;101450.03;5098977;28;20157;-82
2023/07/19 10:34:58;;;;;;;0.90;0.90;;;;;;;24.05;51.52;101451.31;5092679;28;20118;-82
2023/07/19 10:37:24;;;;;;;0.00;0.00;;;;;;;24.12;51.26;101440.97;5100977;28;20040;-82
2023/07/19 10:39:50;;;;;;;0.10;0.10;;;;;;;24.08;51.01;101445.72;5109575;28;20019;-80
2023/07/19 10:42:16;;;;;;;0.20;0.20;;;;;;;24.09;50.09;101443.88;5110343;28;20040;-81
2023/07/19 10:44:42;;;;;;;0.10;0.10;;;;;;;24.28;51.01;101447.06;5102454;28;20049;-82
2023/07/19 10:47:12;;;;;;;0.45;0.32;;;;;;;24.44;50.34;101449.59;5082797;28;20027;-81
2023/07/19 10:49:42;;;;;;;0.20;0.20;;;;;;;24.46;49.64;101442.22;5085949;28;20210;-81
2023/07/19 10:52:10;;;;;;;0.52;0.50;;;;;;;24.60;50.05;101443.09;5075953;28;20027;-82
2023/07/19 10:54:36;;;;;;;0.00;0.00;;;;;;;24.83;49.16;101442.34;5094217;28;20039;-82
2023/07/19 10:57:02;;;;;;;0.10;0.10;;;;;;;25.10;49.09;101438.66;5087052;28;20033;-82
2023/07/19 10:59:28;;;;;;;0.15;0.15;;;;;;;25.30;48.16;101444.50;5095905;28;20020;-82
2023/07/19 11:01:55;;;;;;;0.10;0.10;;;;;;;25.34;47.24;101438.69;5084882;28;20028;-82
2023/07/19 11:04:22;;;;;;;0.10;0.10;;;;;;;25.26;46.74;101442.97;5091502;28;20092;-82
2023/07/19 11:06:59;;;;;;;0.10;0.10;;;;;;;25.33;47.39;101441.53;5085099;28;20125;-82
2023/07/19 11:09:26;;;;;;;0.10;0.10;;;;;;;25.33;47.48;101438.81;5084610;28;20040;-82
2023/07/19 11:12:02;;;;;;;0.00;0.00;;;;;;;25.40;47.04;101436.56;5082867;28;20021;-81
2023/07/19 11:14:31;;;;;;;0.25;0.25;;;;;;;25.41;45.96;101438.28;5085884;28;20029;-82
2023/07/19 11:16:58;;;;;;;0.00;0.00;;;;;;;25.35;45.90;101442.31;5086445;28;20028;-82
2023/07/19 11:19:33;;;;;;;0.10;0.10;;;;;;;25.40;45.28;101434.72;5084446;28;20123;-82
2023/07/19 11:21:59;;;;;;;0.22;0.22;;;;;;;25.59;46.47;101436.06;5081159;28;21030;-82
2023/07/19 11:24:34;;;;;;;0.00;0.00;;;;;;;25.81;45.18;101428.03;5086191;28;20040;-83
2023/07/19 11:27:00;;;;;;;0.00;0.00;;;;;;;25.96;44.83;101427.88;5084368;28;20032;-82
2023/07/19 11:29:34;;;;;;;0.10;0.10;;;;;;;26.15;45.33;101439.06;5101354;28;20044;-83
2023/07/19 11:32:21;;;;;;;0.10;0.10;;;;;;;26.24;42.71;101440.22;5087202;28;20060;-82